sensor_id;sensor_type;location;lat;lon;timestamp;temperature;humidity
61841;DHT22;47773;53.174;6.614;2023-06-26T00:00:04;23.40;99.90
61841;DHT22;47773;53.174;6.614;2023-06-26T00:02:30;23.40;99.90
61841;DHT22;47773;53.174;6.614;2023-06-26T00:04:58;23.30;99.90
61841;DHT22;47773;53.174;6.614;2023-06-26T00:07:28;23.30;99.90
61841;DHT22;47773;53.174;6.614;2023-06-26T00:09:54;23.30;99.90
61841;DHT22;47773;53.174;6.614;2023-06-26T00:12:20;23.30;99.90
61841;DHT22;47773;53.174;6.614;2023-06-26T00:14:45;23.30;99.90
61841;DHT22;47773;53.174;6.614;2023-06-26T00:17:11;23.20;99.90
61841;DHT22;47773;53.174;6.614;2023-06-26T00:19:37;23.20;99.90
61841;DHT22;47773;53.174;6.614;2023-06-26T00:22:03;23.10;99.90
61841;DHT22;47773;53.174;6.614;2023-06-26T00:24:29;23.20;99.90
61841;DHT22;47773;53.174;6.614;2023-06-26T00:26:54;23.10;99.90
61841;DHT22;47773;53.174;6.614;2023-06-26T00:29:20;23.10;99.90
61841;DHT22;47773;53.174;6.614;2023-06-26T00:31:46;23.10;99.90
61841;DHT22;47773;53.174;6.614;2023-06-26T00:34:11;23.10;99.90
61841;DHT22;47773;53.174;6.614;2023-06-26T00:36:37;23.10;99.90
61841;DHT22;47773;53.174;6.614;2023-06-26T00:39:03;23.00;99.90
61841;DHT22;47773;53.174;6.614;2023-06-26T00:41:29;23.00;99.90
61841;DHT22;47773;53.174;6.614;2023-06-26T00:43:55;23.00;99.90
61841;DHT22;47773;53.174;6.614;2023-06-26T00:46:20;23.00;99.90
61841;DHT22;47773;53.174;6.614;2023-06-26T00:48:48;23.00;99.90
61841;DHT22;47773;53.174;6.614;2023-06-26T00:51:14;22.90;99.90
61841;DHT22;47773;53.174;6.614;2023-06-26T00:53:40;22.90;99.90
61841;DHT22;47773;53.174;6.614;2023-06-26T00:56:06;22.90;99.90
61841;DHT22;47773;53.174;6.614;2023-06-26T00:58:32;22.90;99.90
61841;DHT22;47773;53.174;6.614;2023-06-26T01:00:57;22.90;99.90
61841;DHT22;47773;53.174;6.614;2023-06-26T01:03:25;22.80;99.90
61841;DHT22;47773;53.174;6.614;2023-06-26T01:05:55;22.80;99.90
61841;DHT22;47773;53.174;6.614;2023-06-26T01:08:22;22.80;99.90
61841;DHT22;47773;53.174;6.614;2023-06-26T01:10:48;22.80;99.90
61841;DHT22;47773;53.174;6.614;2023-06-26T01:13:15;22.70;99.90
61841;DHT22;47773;53.174;6.614;2023-06-26T01:15:41;22.80;99.90
61841;DHT22;47773;53.174;6.614;2023-06-26T01:18:07;22.70;99.90
61841;DHT22;47773;53.174;6.614;2023-06-26T01:20:37;22.70;99.90
61841;DHT22;47773;53.174;6.614;2023-06-26T01:23:20;22.70;99.90
61841;DHT22;47773;53.174;6.614;2023-06-26T01:28:33;22.60;99.90
61841;DHT22;47773;53.174;6.614;2023-06-26T01:30:59;22.60;99.90
61841;DHT22;47773;53.174;6.614;2023-06-26T01:33:25;22.60;99.90
61841;DHT22;47773;53.174;6.614;2023-06-26T01:35:52;22.60;99.90
61841;DHT22;47773;53.174;6.614;2023-06-26T01:38:19;22.60;99.90
61841;DHT22;47773;53.174;6.614;2023-06-26T01:40:46;22.60;99.90
61841;DHT22;47773;53.174;6.614;2023-06-26T01:43:43;22.60;99.90
61841;DHT22;47773;53.174;6.614;2023-06-26T01:46:22;22.60;99.90
61841;DHT22;47773;53.174;6.614;2023-06-26T01:51:30;22.70;99.90
61841;DHT22;47773;53.174;6.614;2023-06-26T01:53:57;22.70;99.90
61841;DHT22;47773;53.174;6.614;2023-06-26T01:56:24;22.70;99.90
61841;DHT22;47773;53.174;6.614;2023-06-26T01:58:51;22.70;99.90
61841;DHT22;47773;53.174;6.614;2023-06-26T02:01:20;22.70;99.90
61841;DHT22;47773;53.174;6.614;2023-06-26T02:03:47;22.70;99.90
61841;DHT22;47773;53.174;6.614;2023-06-26T02:06:12;22.70;99.90
61841;DHT22;47773;53.174;6.614;2023-06-26T02:08:38;22.70;99.90
61841;DHT22;47773;53.174;6.614;2023-06-26T02:11:04;22.70;99.90
61841;DHT22;47773;53.174;6.614;2023-06-26T02:13:29;22.70;99.90
61841;DHT22;47773;53.174;6.614;2023-06-26T02:15:55;22.70;99.90
61841;DHT22;47773;53.174;6.614;2023-06-26T02:18:21;22.70;99.90
61841;DHT22;47773;53.174;6.614;2023-06-26T02:20:48;22.60;99.90
61841;DHT22;47773;53.174;6.614;2023-06-26T02:23:13;22.70;99.90
61841;DHT22;47773;53.174;6.614;2023-06-26T02:25:39;22.60;99.90
61841;DHT22;47773;53.174;6.614;2023-06-26T02:28:05;22.60;99.90
61841;DHT22;47773;53.174;6.614;2023-06-26T02:30:30;22.60;99.90
61841;DHT22;47773;53.174;6.614;2023-06-26T02:32:56;22.60;99.90
61841;DHT22;47773;53.174;6.614;2023-06-26T02:35:22;22.60;99.90
61841;DHT22;47773;53.174;6.614;2023-06-26T02:37:47;22.50;99.90
61841;DHT22;47773;53.174;6.614;2023-06-26T02:40:13;22.50;99.90
61841;DHT22;47773;53.174;6.614;2023-06-26T02:42:39;22.40;99.90
61841;DHT22;47773;53.174;6.614;2023-06-26T02:45:05;22.40;99.90
61841;DHT22;47773;53.174;6.614;2023-06-26T02:47:30;22.40;99.90
61841;DHT22;47773;53.174;6.614;2023-06-26T02:49:56;22.40;99.90
61841;DHT22;47773;53.174;6.614;2023-06-26T02:52:22;22.40;99.90
61841;DHT22;47773;53.174;6.614;2023-06-26T02:54:47;22.30;99.90
61841;DHT22;47773;53.174;6.614;2023-06-26T02:57:13;22.30;99.90
61841;DHT22;47773;53.174;6.614;2023-06-26T02:59:40;22.30;99.90
61841;DHT22;47773;53.174;6.614;2023-06-26T03:02:05;22.30;99.90
61841;DHT22;47773;53.174;6.614;2023-06-26T03:04:31;22.30;99.90
61841;DHT22;47773;53.174;6.614;2023-06-26T03:06:57;22.30;99.90
61841;DHT22;47773;53.174;6.614;2023-06-26T03:09:22;22.30;99.90
61841;DHT22;47773;53.174;6.614;2023-06-26T03:11:48;22.30;99.90
61841;DHT22;47773;53.174;6.614;2023-06-26T03:14:14;22.20;99.90
61841;DHT22;47773;53.174;6.614;2023-06-26T03:16:40;22.20;99.90
61841;DHT22;47773;53.174;6.614;2023-06-26T03:19:05;22.20;99.90
61841;DHT22;47773;53.174;6.614;2023-06-26T03:21:32;22.20;99.90
61841;DHT22;47773;53.174;6.614;2023-06-26T03:23:58;22.20;99.90
61841;DHT22;47773;53.174;6.614;2023-06-26T03:26:23;22.20;99.90
61841;DHT22;47773;53.174;6.614;2023-06-26T03:28:53;22.10;99.90
61841;DHT22;47773;53.174;6.614;2023-06-26T03:31:19;22.10;99.90
61841;DHT22;47773;53.174;6.614;2023-06-26T03:33:46;22.10;99.90
61841;DHT22;47773;53.174;6.614;2023-06-26T03:36:12;22.10;99.90
61841;DHT22;47773;53.174;6.614;2023-06-26T03:38:37;22.10;99.90
61841;DHT22;47773;53.174;6.614;2023-06-26T03:41:03;22.10;99.90
61841;DHT22;47773;53.174;6.614;2023-06-26T03:43:29;22.10;99.90
61841;DHT22;47773;53.174;6.614;2023-06-26T03:45:54;22.10;99.90
61841;DHT22;47773;53.174;6.614;2023-06-26T03:48:20;22.10;99.90
61841;DHT22;47773;53.174;6.614;2023-06-26T03:50:46;22.00;99.90
61841;DHT22;47773;53.174;6.614;2023-06-26T03:53:11;22.10;99.90
61841;DHT22;47773;53.174;6.614;2023-06-26T03:55:37;22.10;99.90
61841;DHT22;47773;53.174;6.614;2023-06-26T03:58:04;22.10;99.90
61841;DHT22;47773;53.174;6.614;2023-06-26T04:00:30;22.10;99.90
61841;DHT22;47773;53.174;6.614;2023-06-26T04:02:56;22.10;99.90
61841;DHT22;47773;53.174;6.614;2023-06-26T04:05:23;22.10;99.90
61841;DHT22;47773;53.174;6.614;2023-06-26T04:07:52;22.10;99.90
61841;DHT22;47773;53.174;6.614;2023-06-26T04:10:18;22.10;99.90
61841;DHT22;47773;53.174;6.614;2023-06-26T04:12:46;22.10;99.90
61841;DHT22;47773;53.174;6.614;2023-06-26T04:15:11;22.10;99.90
61841;DHT22;47773;53.174;6.614;2023-06-26T04:17:37;22.10;99.90
61841;DHT22;47773;53.174;6.614;2023-06-26T04:20:03;22.00;99.90
61841;DHT22;47773;53.174;6.614;2023-06-26T04:22:33;22.00;99.90
61841;DHT22;47773;53.174;6.614;2023-06-26T04:25:01;22.00;99.90
61841;DHT22;47773;53.174;6.614;2023-06-26T04:27:28;22.00;99.90
61841;DHT22;47773;53.174;6.614;2023-06-26T04:29:54;22.10;99.90
61841;DHT22;47773;53.174;6.614;2023-06-26T04:32:19;22.20;99.90
61841;DHT22;47773;53.174;6.614;2023-06-26T04:34:45;22.20;99.90
61841;DHT22;47773;53.174;6.614;2023-06-26T04:37:11;22.30;99.90
61841;DHT22;47773;53.174;6.614;2023-06-26T04:39:37;22.40;99.90
61841;DHT22;47773;53.174;6.614;2023-06-26T04:42:04;22.50;99.90
61841;DHT22;47773;53.174;6.614;2023-06-26T04:44:29;22.50;99.90
61841;DHT22;47773;53.174;6.614;2023-06-26T04:46:55;22.50;99.90
61841;DHT22;47773;53.174;6.614;2023-06-26T04:49:21;22.50;99.90
61841;DHT22;47773;53.174;6.614;2023-06-26T04:51:46;22.50;99.90
61841;DHT22;47773;53.174;6.614;2023-06-26T04:54:14;22.50;99.90
61841;DHT22;47773;53.174;6.614;2023-06-26T04:56:39;22.50;99.90
61841;DHT22;47773;53.174;6.614;2023-06-26T04:59:09;22.50;99.90
61841;DHT22;47773;53.174;6.614;2023-06-26T05:01:38;22.40;99.90
61841;DHT22;47773;53.174;6.614;2023-06-26T05:04:05;22.30;99.90
61841;DHT22;47773;53.174;6.614;2023-06-26T05:06:31;22.30;99.90
61841;DHT22;47773;53.174;6.614;2023-06-26T05:08:57;22.30;99.90
61841;DHT22;47773;53.174;6.614;2023-06-26T05:11:24;22.30;99.90
61841;DHT22;47773;53.174;6.614;2023-06-26T05:13:50;22.20;99.90
61841;DHT22;47773;53.174;6.614;2023-06-26T05:16:16;22.20;99.90
61841;DHT22;47773;53.174;6.614;2023-06-26T05:18:41;22.10;99.90
61841;DHT22;47773;53.174;6.614;2023-06-26T05:21:07;22.00;99.90
61841;DHT22;47773;53.174;6.614;2023-06-26T05:23:34;22.00;99.90
61841;DHT22;47773;53.174;6.614;2023-06-26T05:26:00;22.00;99.90
61841;DHT22;47773;53.174;6.614;2023-06-26T05:28:27;21.90;99.90
61841;DHT22;47773;53.174;6.614;2023-06-26T05:30:54;21.90;99.90
61841;DHT22;47773;53.174;6.614;2023-06-26T05:33:23;21.90;99.90
61841;DHT22;47773;53.174;6.614;2023-06-26T05:35:49;21.80;99.90
61841;DHT22;47773;53.174;6.614;2023-06-26T05:38:16;21.70;99.90
61841;DHT22;47773;53.174;6.614;2023-06-26T05:40:42;21.70;99.90
61841;DHT22;47773;53.174;6.614;2023-06-26T05:43:08;21.70;99.90
61841;DHT22;47773;53.174;6.614;2023-06-26T05:45:34;21.60;99.90
61841;DHT22;47773;53.174;6.614;2023-06-26T05:48:00;21.50;99.90
61841;DHT22;47773;53.174;6.614;2023-06-26T05:50:26;21.50;99.90
61841;DHT22;47773;53.174;6.614;2023-06-26T05:52:52;21.40;99.90
61841;DHT22;47773;53.174;6.614;2023-06-26T05:55:18;21.40;99.90
61841;DHT22;47773;53.174;6.614;2023-06-26T05:57:46;21.40;99.90
61841;DHT22;47773;53.174;6.614;2023-06-26T06:00:12;21.30;99.90
61841;DHT22;47773;53.174;6.614;2023-06-26T06:02:39;21.30;99.90
61841;DHT22;47773;53.174;6.614;2023-06-26T06:05:05;21.20;99.90
61841;DHT22;47773;53.174;6.614;2023-06-26T06:07:35;21.10;99.90
61841;DHT22;47773;53.174;6.614;2023-06-26T06:10:03;21.10;99.90
61841;DHT22;47773;53.174;6.614;2023-06-26T06:12:28;21.10;99.90
61841;DHT22;47773;53.174;6.614;2023-06-26T06:14:55;21.10;99.90
61841;DHT22;47773;53.174;6.614;2023-06-26T06:17:21;21.10;99.90
61841;DHT22;47773;53.174;6.614;2023-06-26T06:19:47;21.20;99.90
61841;DHT22;47773;53.174;6.614;2023-06-26T06:22:13;21.20;99.90
61841;DHT22;47773;53.174;6.614;2023-06-26T06:24:39;21.30;99.90
61841;DHT22;47773;53.174;6.614;2023-06-26T06:27:04;21.30;99.90
61841;DHT22;47773;53.174;6.614;2023-06-26T06:29:30;21.40;99.90
61841;DHT22;47773;53.174;6.614;2023-06-26T06:31:56;21.40;99.90
61841;DHT22;47773;53.174;6.614;2023-06-26T06:34:22;21.40;99.90
61841;DHT22;47773;53.174;6.614;2023-06-26T06:36:48;21.50;99.90
61841;DHT22;47773;53.174;6.614;2023-06-26T06:39:15;21.50;99.90
61841;DHT22;47773;53.174;6.614;2023-06-26T06:41:41;21.50;99.90
61841;DHT22;47773;53.174;6.614;2023-06-26T06:44:07;21.50;99.90
61841;DHT22;47773;53.174;6.614;2023-06-26T06:46:33;21.60;99.90
61841;DHT22;47773;53.174;6.614;2023-06-26T06:48:58;21.70;99.90
61841;DHT22;47773;53.174;6.614;2023-06-26T06:51:26;21.80;99.90
61841;DHT22;47773;53.174;6.614;2023-06-26T06:53:51;21.80;99.90
61841;DHT22;47773;53.174;6.614;2023-06-26T06:56:17;21.90;99.90
61841;DHT22;47773;53.174;6.614;2023-06-26T06:58:43;22.00;99.90
61841;DHT22;47773;53.174;6.614;2023-06-26T07:01:12;22.10;99.90
61841;DHT22;47773;53.174;6.614;2023-06-26T07:03:37;22.20;99.90
61841;DHT22;47773;53.174;6.614;2023-06-26T07:06:03;22.20;99.90
61841;DHT22;47773;53.174;6.614;2023-06-26T07:08:29;22.40;99.90
61841;DHT22;47773;53.174;6.614;2023-06-26T07:10:55;22.40;99.90
61841;DHT22;47773;53.174;6.614;2023-06-26T07:13:22;22.50;99.90
61841;DHT22;47773;53.174;6.614;2023-06-26T07:15:48;22.70;99.90
61841;DHT22;47773;53.174;6.614;2023-06-26T07:18:14;22.80;99.90
61841;DHT22;47773;53.174;6.614;2023-06-26T07:20:40;22.90;99.90
61841;DHT22;47773;53.174;6.614;2023-06-26T07:23:07;23.00;99.90
61841;DHT22;47773;53.174;6.614;2023-06-26T07:25:32;23.10;99.90
61841;DHT22;47773;53.174;6.614;2023-06-26T07:27:58;23.20;99.90
61841;DHT22;47773;53.174;6.614;2023-06-26T07:30:23;23.30;99.90
61841;DHT22;47773;53.174;6.614;2023-06-26T07:32:50;23.30;99.90
61841;DHT22;47773;53.174;6.614;2023-06-26T07:35:15;23.30;99.90
61841;DHT22;47773;53.174;6.614;2023-06-26T07:37:41;23.40;99.90
61841;DHT22;47773;53.174;6.614;2023-06-26T07:40:08;23.60;99.90
61841;DHT22;47773;53.174;6.614;2023-06-26T07:42:34;23.60;99.90
61841;DHT22;47773;53.174;6.614;2023-06-26T07:45:00;23.70;99.90
61841;DHT22;47773;53.174;6.614;2023-06-26T07:47:25;23.90;99.90
61841;DHT22;47773;53.174;6.614;2023-06-26T07:49:51;24.00;99.90
61841;DHT22;47773;53.174;6.614;2023-06-26T07:52:18;24.00;99.90
61841;DHT22;47773;53.174;6.614;2023-06-26T07:54:44;24.30;99.90
61841;DHT22;47773;53.174;6.614;2023-06-26T07:57:10;24.30;99.90
61841;DHT22;47773;53.174;6.614;2023-06-26T07:59:37;24.40;99.90
61841;DHT22;47773;53.174;6.614;2023-06-26T08:02:03;24.40;99.90
61841;DHT22;47773;53.174;6.614;2023-06-26T08:04:29;24.50;99.90
61841;DHT22;47773;53.174;6.614;2023-06-26T08:06:58;24.50;99.90
61841;DHT22;47773;53.174;6.614;2023-06-26T08:09:26;24.60;99.90
61841;DHT22;47773;53.174;6.614;2023-06-26T08:11:53;24.50;99.90
61841;DHT22;47773;53.174;6.614;2023-06-26T08:14:19;24.90;99.90
61841;DHT22;47773;53.174;6.614;2023-06-26T08:16:45;24.90;99.90
61841;DHT22;47773;53.174;6.614;2023-06-26T08:19:12;25.00;99.90
61841;DHT22;47773;53.174;6.614;2023-06-26T08:21:39;25.20;99.90
61841;DHT22;47773;53.174;6.614;2023-06-26T08:24:05;25.30;99.90
61841;DHT22;47773;53.174;6.614;2023-06-26T08:26:31;24.90;99.50
61841;DHT22;47773;53.174;6.614;2023-06-26T08:28:56;24.80;99.40
61841;DHT22;47773;53.174;6.614;2023-06-26T08:31:22;24.90;99.60
61841;DHT22;47773;53.174;6.614;2023-06-26T08:33:48;25.10;99.30
61841;DHT22;47773;53.174;6.614;2023-06-26T08:36:13;25.20;98.70
61841;DHT22;47773;53.174;6.614;2023-06-26T08:38:39;25.10;98.60
61841;DHT22;47773;53.174;6.614;2023-06-26T08:41:08;25.10;98.50
61841;DHT22;47773;53.174;6.614;2023-06-26T08:43:35;25.10;98.30
61841;DHT22;47773;53.174;6.614;2023-06-26T08:46:01;25.30;98.10
61841;DHT22;47773;53.174;6.614;2023-06-26T08:48:30;25.60;97.70
61841;DHT22;47773;53.174;6.614;2023-06-26T08:50:57;25.70;97.40
61841;DHT22;47773;53.174;6.614;2023-06-26T08:56:07;26.00;96.50
61841;DHT22;47773;53.174;6.614;2023-06-26T08:58:35;25.80;96.40
61841;DHT22;47773;53.174;6.614;2023-06-26T09:01:04;25.90;96.40
61841;DHT22;47773;53.174;6.614;2023-06-26T09:03:31;25.80;96.50
61841;DHT22;47773;53.174;6.614;2023-06-26T09:05:57;25.50;96.40
61841;DHT22;47773;53.174;6.614;2023-06-26T09:08:22;25.30;96.50
61841;DHT22;47773;53.174;6.614;2023-06-26T09:10:48;25.50;96.30
61841;DHT22;47773;53.174;6.614;2023-06-26T09:13:14;25.60;96.00
61841;DHT22;47773;53.174;6.614;2023-06-26T09:15:43;25.90;95.50
61841;DHT22;47773;53.174;6.614;2023-06-26T09:18:09;26.10;95.10
61841;DHT22;47773;53.174;6.614;2023-06-26T09:20:35;26.30;95.10
61841;DHT22;47773;53.174;6.614;2023-06-26T09:23:01;26.00;94.80
61841;DHT22;47773;53.174;6.614;2023-06-26T09:25:30;25.80;94.80
61841;DHT22;47773;53.174;6.614;2023-06-26T09:27:57;25.80;94.60
61841;DHT22;47773;53.174;6.614;2023-06-26T09:30:22;26.00;94.50
61841;DHT22;47773;53.174;6.614;2023-06-26T09:32:48;26.50;94.00
61841;DHT22;47773;53.174;6.614;2023-06-26T09:35:17;26.70;93.40
61841;DHT22;47773;53.174;6.614;2023-06-26T09:37:43;26.30;93.00
61841;DHT22;47773;53.174;6.614;2023-06-26T09:40:09;26.20;93.10
61841;DHT22;47773;53.174;6.614;2023-06-26T09:42:35;25.70;93.00
61841;DHT22;47773;53.174;6.614;2023-06-26T09:45:02;25.30;93.10
61841;DHT22;47773;53.174;6.614;2023-06-26T09:47:30;24.90;93.30
61841;DHT22;47773;53.174;6.614;2023-06-26T09:49:57;25.20;93.50
61841;DHT22;47773;53.174;6.614;2023-06-26T09:52:26;25.70;93.40
61841;DHT22;47773;53.174;6.614;2023-06-26T09:55:09;25.50;93.00
61841;DHT22;47773;53.174;6.614;2023-06-26T09:57:35;25.20;92.00
61841;DHT22;47773;53.174;6.614;2023-06-26T10:00:05;25.00;92.80
61841;DHT22;47773;53.174;6.614;2023-06-26T10:02:31;24.60;92.60
61841;DHT22;47773;53.174;6.614;2023-06-26T10:04:56;24.80;92.90
61841;DHT22;47773;53.174;6.614;2023-06-26T10:07:23;24.80;92.90
61841;DHT22;47773;53.174;6.614;2023-06-26T10:09:50;24.70;93.00
61841;DHT22;47773;53.174;6.614;2023-06-26T10:12:26;24.50;92.90
61841;DHT22;47773;53.174;6.614;2023-06-26T10:14:53;24.70;92.90
61841;DHT22;47773;53.174;6.614;2023-06-26T10:17:21;25.10;92.90
61841;DHT22;47773;53.174;6.614;2023-06-26T10:19:48;24.90;92.40
61841;DHT22;47773;53.174;6.614;2023-06-26T10:22:17;24.90;92.40
61841;DHT22;47773;53.174;6.614;2023-06-26T10:24:44;24.90;92.10
61841;DHT22;47773;53.174;6.614;2023-06-26T10:27:21;25.20;91.80
61841;DHT22;47773;53.174;6.614;2023-06-26T10:29:53;25.50;91.60
61841;DHT22;47773;53.174;6.614;2023-06-26T10:32:20;25.70;91.20
61841;DHT22;47773;53.174;6.614;2023-06-26T10:34:47;25.50;90.80
61841;DHT22;47773;53.174;6.614;2023-06-26T10:37:13;25.70;90.90
61841;DHT22;47773;53.174;6.614;2023-06-26T10:39:50;26.00;90.40
61841;DHT22;47773;53.174;6.614;2023-06-26T10:42:17;26.10;88.80
61841;DHT22;47773;53.174;6.614;2023-06-26T10:44:46;26.30;88.90
61841;DHT22;47773;53.174;6.614;2023-06-26T10:47:31;26.70;88.40
61841;DHT22;47773;53.174;6.614;2023-06-26T10:56:05;26.90;86.50
61841;DHT22;47773;53.174;6.614;2023-06-26T11:01:18;27.60;86.30
61841;DHT22;47773;53.174;6.614;2023-06-26T11:06:14;28.10;84.30
61841;DHT22;47773;53.174;6.614;2023-06-26T11:08:49;28.20;83.70
61841;DHT22;47773;53.174;6.614;2023-06-26T11:11:16;28.10;81.80
61841;DHT22;47773;53.174;6.614;2023-06-26T11:13:42;28.10;82.10
61841;DHT22;47773;53.174;6.614;2023-06-26T11:16:12;27.60;80.20
61841;DHT22;47773;53.174;6.614;2023-06-26T11:18:38;27.40;80.70
61841;DHT22;47773;53.174;6.614;2023-06-26T11:21:12;27.40;81.00
61841;DHT22;47773;53.174;6.614;2023-06-26T11:23:41;27.40;80.40
61841;DHT22;47773;53.174;6.614;2023-06-26T11:26:26;27.40;80.80
61841;DHT22;47773;53.174;6.614;2023-06-26T11:28:55;27.70;80.40
61841;DHT22;47773;53.174;6.614;2023-06-26T11:31:32;27.90;78.00
61841;DHT22;47773;53.174;6.614;2023-06-26T11:34:03;27.50;78.10
61841;DHT22;47773;53.174;6.614;2023-06-26T11:36:29;27.40;78.20
61841;DHT22;47773;53.174;6.614;2023-06-26T11:39:00;27.40;79.00
61841;DHT22;47773;53.174;6.614;2023-06-26T11:41:28;27.70;79.00
61841;DHT22;47773;53.174;6.614;2023-06-26T11:43:54;27.70;78.80
61841;DHT22;47773;53.174;6.614;2023-06-26T11:46:20;27.50;77.80
61841;DHT22;47773;53.174;6.614;2023-06-26T11:48:47;27.60;78.10
61841;DHT22;47773;53.174;6.614;2023-06-26T11:51:13;27.70;77.40
61841;DHT22;47773;53.174;6.614;2023-06-26T11:53:41;27.50;77.60
61841;DHT22;47773;53.174;6.614;2023-06-26T11:56:11;27.30;77.30
61841;DHT22;47773;53.174;6.614;2023-06-26T11:59:00;26.80;77.30
61841;DHT22;47773;53.174;6.614;2023-06-26T12:01:30;26.40;76.30
61841;DHT22;47773;53.174;6.614;2023-06-26T12:03:59;26.70;77.30
61841;DHT22;47773;53.174;6.614;2023-06-26T12:06:27;27.00;77.10
61841;DHT22;47773;53.174;6.614;2023-06-26T12:08:54;27.20;77.20
61841;DHT22;47773;53.174;6.614;2023-06-26T12:11:21;27.20;76.10
61841;DHT22;47773;53.174;6.614;2023-06-26T12:13:48;27.10;76.10
61841;DHT22;47773;53.174;6.614;2023-06-26T12:16:14;27.10;76.50
61841;DHT22;47773;53.174;6.614;2023-06-26T12:18:40;27.10;75.90
61841;DHT22;47773;53.174;6.614;2023-06-26T12:21:06;27.30;76.30
61841;DHT22;47773;53.174;6.614;2023-06-26T12:23:41;27.10;76.00
61841;DHT22;47773;53.174;6.614;2023-06-26T12:26:19;27.00;75.90
61841;DHT22;47773;53.174;6.614;2023-06-26T12:28:46;26.60;75.00
61841;DHT22;47773;53.174;6.614;2023-06-26T12:31:16;26.60;75.60
61841;DHT22;47773;53.174;6.614;2023-06-26T12:33:44;26.70;76.00
61841;DHT22;47773;53.174;6.614;2023-06-26T12:36:11;26.40;75.60
61841;DHT22;47773;53.174;6.614;2023-06-26T12:38:38;26.30;76.40
61841;DHT22;47773;53.174;6.614;2023-06-26T12:41:03;26.30;76.60
61841;DHT22;47773;53.174;6.614;2023-06-26T12:43:29;26.30;76.50
61841;DHT22;47773;53.174;6.614;2023-06-26T12:45:55;26.10;76.50
61841;DHT22;47773;53.174;6.614;2023-06-26T12:48:35;25.80;76.50
61841;DHT22;47773;53.174;6.614;2023-06-26T12:51:11;26.00;77.00
61841;DHT22;47773;53.174;6.614;2023-06-26T12:53:38;26.10;77.70
61841;DHT22;47773;53.174;6.614;2023-06-26T12:56:07;25.70;78.00
61841;DHT22;47773;53.174;6.614;2023-06-26T12:58:34;25.50;77.40
61841;DHT22;47773;53.174;6.614;2023-06-26T13:01:00;25.40;77.80
61841;DHT22;47773;53.174;6.614;2023-06-26T13:03:26;25.10;77.60
61841;DHT22;47773;53.174;6.614;2023-06-26T13:05:52;24.90;77.70
61841;DHT22;47773;53.174;6.614;2023-06-26T13:08:17;24.70;77.80
61841;DHT22;47773;53.174;6.614;2023-06-26T13:10:44;24.60;77.80
61841;DHT22;47773;53.174;6.614;2023-06-26T13:13:13;24.50;78.30
61841;DHT22;47773;53.174;6.614;2023-06-26T13:15:38;24.30;78.70
61841;DHT22;47773;53.174;6.614;2023-06-26T13:18:04;24.20;79.20
61841;DHT22;47773;53.174;6.614;2023-06-26T13:20:30;24.10;79.70
61841;DHT22;47773;53.174;6.614;2023-06-26T13:22:55;24.20;79.80
61841;DHT22;47773;53.174;6.614;2023-06-26T13:25:22;24.30;79.70
61841;DHT22;47773;53.174;6.614;2023-06-26T13:27:48;24.30;79.60
61841;DHT22;47773;53.174;6.614;2023-06-26T13:30:15;24.60;79.90
61841;DHT22;47773;53.174;6.614;2023-06-26T13:32:42;24.70;80.10
61841;DHT22;47773;53.174;6.614;2023-06-26T13:35:09;24.50;79.80
61841;DHT22;47773;53.174;6.614;2023-06-26T13:37:35;24.50;79.70
61841;DHT22;47773;53.174;6.614;2023-06-26T13:40:02;24.40;79.70
61841;DHT22;47773;53.174;6.614;2023-06-26T13:42:29;24.20;79.40
61841;DHT22;47773;53.174;6.614;2023-06-26T13:44:54;24.10;79.40
61841;DHT22;47773;53.174;6.614;2023-06-26T13:47:20;24.10;79.20
61841;DHT22;47773;53.174;6.614;2023-06-26T13:49:46;24.10;79.40
61841;DHT22;47773;53.174;6.614;2023-06-26T13:52:12;24.00;79.60
61841;DHT22;47773;53.174;6.614;2023-06-26T13:54:38;24.00;80.20
61841;DHT22;47773;53.174;6.614;2023-06-26T13:57:06;24.00;80.00
61841;DHT22;47773;53.174;6.614;2023-06-26T13:59:32;24.20;80.40
61841;DHT22;47773;53.174;6.614;2023-06-26T14:01:58;24.50;80.40
61841;DHT22;47773;53.174;6.614;2023-06-26T14:04:25;24.60;80.20
61841;DHT22;47773;53.174;6.614;2023-06-26T14:06:50;24.40;79.80
61841;DHT22;47773;53.174;6.614;2023-06-26T14:09:16;24.20;79.60
61841;DHT22;47773;53.174;6.614;2023-06-26T14:11:43;24.20;80.20
61841;DHT22;47773;53.174;6.614;2023-06-26T14:14:09;24.30;80.80
61841;DHT22;47773;53.174;6.614;2023-06-26T14:16:35;24.20;81.00
61841;DHT22;47773;53.174;6.614;2023-06-26T14:19:01;24.20;81.30
61841;DHT22;47773;53.174;6.614;2023-06-26T14:21:27;24.10;81.90
61841;DHT22;47773;53.174;6.614;2023-06-26T14:23:54;24.00;82.60
61841;DHT22;47773;53.174;6.614;2023-06-26T14:26:20;23.90;83.20
61841;DHT22;47773;53.174;6.614;2023-06-26T14:28:46;24.00;83.40
61841;DHT22;47773;53.174;6.614;2023-06-26T14:31:12;23.90;83.10
61841;DHT22;47773;53.174;6.614;2023-06-26T14:33:38;24.00;82.10
61841;DHT22;47773;53.174;6.614;2023-06-26T14:36:04;24.00;81.60
61841;DHT22;47773;53.174;6.614;2023-06-26T14:38:30;24.00;81.10
61841;DHT22;47773;53.174;6.614;2023-06-26T14:40:55;24.00;80.50
61841;DHT22;47773;53.174;6.614;2023-06-26T14:43:21;24.10;80.20
61841;DHT22;47773;53.174;6.614;2023-06-26T14:45:47;24.20;79.70
61841;DHT22;47773;53.174;6.614;2023-06-26T14:48:13;24.30;79.70
61841;DHT22;47773;53.174;6.614;2023-06-26T14:50:39;24.00;79.60
61841;DHT22;47773;53.174;6.614;2023-06-26T14:53:04;23.80;80.10
61841;DHT22;47773;53.174;6.614;2023-06-26T14:55:30;23.60;80.60
61841;DHT22;47773;53.174;6.614;2023-06-26T14:57:56;23.50;81.30
61841;DHT22;47773;53.174;6.614;2023-06-26T15:00:22;23.30;81.70
61841;DHT22;47773;53.174;6.614;2023-06-26T15:02:48;23.20;81.40
61841;DHT22;47773;53.174;6.614;2023-06-26T15:05:13;23.10;81.20
61841;DHT22;47773;53.174;6.614;2023-06-26T15:07:39;23.00;81.60
61841;DHT22;47773;53.174;6.614;2023-06-26T15:10:05;23.20;82.00
61841;DHT22;47773;53.174;6.614;2023-06-26T15:12:32;23.40;81.80
61841;DHT22;47773;53.174;6.614;2023-06-26T15:14:58;23.60;82.10
61841;DHT22;47773;53.174;6.614;2023-06-26T15:17:23;23.40;82.70
61841;DHT22;47773;53.174;6.614;2023-06-26T15:19:49;23.30;83.50
61841;DHT22;47773;53.174;6.614;2023-06-26T15:22:18;23.20;83.80
61841;DHT22;47773;53.174;6.614;2023-06-26T15:24:44;23.10;85.10
61841;DHT22;47773;53.174;6.614;2023-06-26T15:27:09;22.90;84.80
61841;DHT22;47773;53.174;6.614;2023-06-26T15:29:35;22.80;85.10
61841;DHT22;47773;53.174;6.614;2023-06-26T15:32:01;22.70;85.30
61841;DHT22;47773;53.174;6.614;2023-06-26T15:34:27;22.70;85.00
61841;DHT22;47773;53.174;6.614;2023-06-26T15:36:52;22.90;84.20
61841;DHT22;47773;53.174;6.614;2023-06-26T15:39:18;22.90;83.80
61841;DHT22;47773;53.174;6.614;2023-06-26T15:41:44;22.80;83.70
61841;DHT22;47773;53.174;6.614;2023-06-26T15:44:11;22.90;84.00
61841;DHT22;47773;53.174;6.614;2023-06-26T15:46:36;23.00;83.80